Time;durP1;ratioP1;P1;durP2;ratioP2;P2;SDS_P1;SDS_P2;PMS_P1;PMS_P2;Temp;Humidity;BMP_temperature;BMP_pressure;BME280_temperature;BME280_humidity;BME280_pressure;Samples;Min_cycle;Max_cycle;Signal;HPM_P1;HPM_P2
2022/11/13 00:00:50;;;;;;;;;10.00;9.00;;;;;21.46;44.53;102324.34;5034495;28;45359;-71
2022/11/13 00:03:15;;;;;;;;;10.75;9.75;;;;;21.45;45.16;102320.88;5022475;28;45384;-70
2022/11/13 00:05:41;;;;;;;;;11.00;9.67;;;;;21.42;45.26;102315.84;5028260;28;45275;-71
2022/11/13 00:08:06;;;;;;;;;11.00;9.00;;;;;;;;5016721;28;46909;-71
2022/11/13 00:10:31;;;;;;;;;7.33;6.67;;;;;21.42;45.38;102307.91;5035231;28;45264;-70
2022/11/13 00:12:57;;;;;;;;;8.00;8.00;;;;;21.45;44.87;102306.78;5037364;28;45211;-71
2022/11/13 00:15:22;;;;;;;;;10.00;8.67;;;;;21.41;45.20;102303.59;5044733;28;45565;-71
2022/11/13 00:17:47;;;;;;;;;8.00;8.00;;;;;21.42;45.04;102305.25;5034708;28;45962;-71
2022/11/13 00:20:13;;;;;;;;;9.33;8.33;;;;;21.40;44.97;102299.28;5035202;28;45314;-71
2022/11/13 00:22:38;;;;;;;;;8.50;8.50;;;;;21.44;45.36;102307.78;5035094;28;45335;-71
2022/11/13 00:25:04;;;;;;;;;8.25;7.75;;;;;21.45;45.48;102304.13;5021135;28;45480;-70
2022/11/13 00:27:30;;;;;;;;;9.25;8.50;;;;;21.42;45.70;102296.50;5035065;28;46087;-71
2022/11/13 00:29:55;;;;;;;;;8.75;8.75;;;;;21.44;45.72;102303.31;5016599;28;45366;-71
2022/11/13 00:32:21;;;;;;;;;8.75;7.25;;;;;21.45;45.31;102296.19;5035007;28;45334;-71
2022/11/13 00:34:46;;;;;;;;;9.00;8.00;;;;;21.44;45.61;102289.25;5034917;28;46319;-70
2022/11/13 00:37:11;;;;;;;;;8.25;8.00;;;;;21.46;45.56;102284.63;5034495;28;46185;-71
2022/11/13 00:39:37;;;;;;;;;10.00;9.25;;;;;21.49;45.05;102285.19;5034981;28;45454;-70
2022/11/13 00:42:02;;;;;;;;;10.25;8.50;;;;;21.48;45.14;102287.97;5045767;28;45472;-70
2022/11/13 00:44:27;;;;;;;;;9.00;8.00;;;;;21.45;45.59;102275.00;5034549;28;45568;-70
2022/11/13 00:46:53;;;;;;;;;9.00;8.00;;;;;21.47;45.25;102287.13;5034636;28;46147;-71
2022/11/13 00:49:18;;;;;;;;;6.00;6.00;;;;;21.39;45.58;102266.66;5013390;28;45383;-70
2022/11/13 00:51:43;;;;;;;;;10.00;8.00;;;;;21.47;44.98;102289.78;5031935;28;45367;-71
2022/11/13 00:54:09;;;;;;;;;10.00;8.50;;;;;21.47;44.95;102291.59;5035032;28;45347;-71
2022/11/13 00:56:34;;;;;;;;;7.50;6.00;;;;;21.50;45.52;102280.72;5034255;28;46121;-70
2022/11/13 00:58:59;;;;;;;;;9.25;8.50;;;;;21.50;45.40;102276.25;5034022;28;45366;-71
2022/11/13 01:01:25;;;;;;;;;7.00;7.00;;;;;21.50;44.86;102278.91;5034894;28;45400;-70
2022/11/13 01:03:50;;;;;;;;;8.50;8.50;;;;;21.49;45.10;102269.28;5034499;28;45415;-70
2022/11/13 01:06:19;;;;;;;;;9.25;9.00;;;;;21.51;45.08;102266.50;5020270;28;48961;-70
2022/11/13 01:08:45;;;;;;;;;7.50;5.00;;;;;21.51;44.98;102270.00;5034346;28;45323;-70
2022/11/13 01:11:13;;;;;;;;;8.50;8.50;;;;;21.52;45.08;102266.34;5034240;28;45795;-71
2022/11/13 01:13:43;;;;;;;;;8.25;8.00;;;;;21.49;44.86;102261.34;5037391;28;45305;-70
2022/11/13 01:16:10;;;;;;;;;7.25;7.00;;;;;21.53;45.11;102269.84;5044129;28;46519;-71
2022/11/13 01:18:36;;;;;;;;;8.25;6.50;;;;;21.53;45.23;102256.59;5037501;28;45507;-71
2022/11/13 01:21:07;;;;;;;;;7.00;7.00;;;;;21.48;44.79;102254.41;5037504;28;45375;-71
2022/11/13 01:23:33;;;;;;;;;7.00;7.00;;;;;21.51;44.88;102259.41;5037680;28;45487;-71
2022/11/13 01:26:21;;;;;;;;;8.00;8.00;;;;;21.51;44.87;102255.91;5037659;28;47276;-71
2022/11/13 01:28:47;;;;;;;;;11.00;9.00;;;;;21.47;44.92;102247.41;5025461;28;45266;-71
2022/11/13 01:31:15;;;;;;;;;9.75;9.50;;;;;21.50;44.94;102248.94;5037487;28;45361;-71
2022/11/13 01:33:41;;;;;;;;;9.00;8.00;;;;;21.48;45.33;102248.25;5029724;28;45261;-71
2022/11/13 01:36:11;;;;;;;;;7.33;7.00;;;;;21.48;45.25;102246.44;5030121;28;47219;-71
2022/11/13 01:38:36;;;;;;;;;11.75;8.25;;;;;21.48;44.91;102245.59;5037429;28;45324;-71
2022/11/13 01:41:03;;;;;;;;;10.75;8.75;;;;;21.47;45.32;102255.34;5037574;28;45427;-71
2022/11/13 01:43:31;;;;;;;;;10.00;8.50;;;;;21.47;44.80;102252.72;5036963;28;45363;-70
2022/11/13 01:45:57;;;;;;;;;9.25;8.00;;;;;21.46;45.48;102245.75;5036939;28;45389;-70
2022/11/13 01:48:31;;;;;;;;;9.50;7.75;;;;;21.46;44.77;102244.91;5037338;28;45369;-70
2022/11/13 01:50:57;;;;;;;;;7.00;7.00;;;;;21.45;44.66;102245.88;5037418;28;45473;-71
2022/11/13 01:53:22;;;;;;;;;8.00;8.00;;;;;21.35;44.97;102230.88;5037375;28;45303;-71
2022/11/13 01:55:48;;;;;;;;;8.75;7.00;;;;;21.45;45.07;102244.06;5036744;28;46398;-71
2022/11/13 01:58:15;;;;;;;;;9.00;8.25;;;;;21.45;45.16;102243.25;5037225;28;45465;-70
2022/11/13 02:00:40;;;;;;;;;10.25;10.25;;;;;21.34;45.07;102226.53;5037100;28;45478;-70
2022/11/13 02:03:05;;;;;;;;;7.75;7.75;;;;;21.44;44.61;102244.22;5037209;28;45529;-71
2022/11/13 02:05:31;;;;;;;;;8.25;8.25;;;;;21.44;44.87;102245.06;5023852;28;48712;-70
2022/11/13 02:07:56;;;;;;;;;7.75;7.75;;;;;21.42;45.13;102239.06;5035844;28;45432;-71
2022/11/13 02:10:22;;;;;;;;;7.00;7.00;;;;;21.43;45.05;102246.03;5036608;28;45359;-70
2022/11/13 02:12:48;;;;;;;;;8.50;8.50;;;;;;;;5036831;28;45488;-71
2022/11/13 02:15:14;;;;;;;;;9.25;8.00;;;;;21.40;44.65;102220.69;5036874;28;47236;-71
2022/11/13 02:18:00;;;;;;;;;10.25;9.50;;;;;21.44;45.08;102223.06;5036504;28;45424;-70
2022/11/13 02:20:42;;;;;;;;;10.67;7.67;;;;;21.43;45.19;102219.56;5036687;28;45535;-70
2022/11/13 02:23:17;;;;;;;;;9.75;7.50;;;;;21.43;44.73;102222.22;5036573;28;45461;-70
2022/11/13 02:25:43;;;;;;;;;8.00;8.00;;;;;;;;5036092;28;46464;-70
2022/11/13 02:28:09;;;;;;;;;7.50;6.00;;;;;;;;5036539;28;45292;-70
2022/11/13 02:30:34;;;;;;;;;7.00;7.00;;;;;;;;5036341;28;45414;-70
2022/11/13 02:33:00;;;;;;;;;11.00;7.75;;;;;21.44;44.92;102215.94;5036697;28;45212;-70
2022/11/13 02:35:30;;;;;;;;;8.33;5.33;;;;;;;;5036679;28;46230;-70
2022/11/13 02:37:58;;;;;;;;;6.50;6.25;;;;;21.45;45.15;102211.47;5036758;28;45383;-70
2022/11/13 02:40:25;;;;;;;;;9.33;7.33;;;;;21.45;44.63;102203.53;5036385;28;45410;-70
2022/11/13 02:42:50;;;;;;;;;10.00;8.25;;;;;;;;5036685;28;45364;-70
2022/11/13 02:45:16;;;;;;;;;11.33;9.00;;;;;21.45;44.70;102193.78;5036066;28;45362;-70
2022/11/13 02:47:42;;;;;;;;;8.33;6.00;;;;;21.45;44.90;102196.41;5036505;28;45288;-70
2022/11/13 02:50:09;;;;;;;;;9.50;8.50;;;;;21.46;44.53;102186.66;5036394;28;45405;-70
2022/11/13 02:52:34;;;;;;;;;12.00;8.67;;;;;21.40;44.61;102185.41;5043628;28;45466;-71
2022/11/13 02:55:00;;;;;;;;;9.50;7.75;;;;;21.45;44.69;102188.47;5035691;28;46079;-70
2022/11/13 02:57:25;;;;;;;;;7.25;7.25;;;;;21.43;44.99;102182.50;5035621;28;47632;-70
2022/11/13 02:59:50;;;;;;;;;9.00;8.33;;;;;;;;5036605;28;45304;-70
2022/11/13 03:02:16;;;;;;;;;5.67;5.33;;;;;21.45;44.64;102177.03;5036095;28;45568;-70
2022/11/13 03:04:41;;;;;;;;;9.00;9.00;;;;;21.43;44.89;102185.16;5035563;28;47433;-71
2022/11/13 03:07:06;;;;;;;;;9.00;7.00;;;;;21.40;44.53;102180.13;5036259;28;45375;-70
2022/11/13 03:09:32;;;;;;;;;7.50;7.50;;;;;21.42;44.97;102186.09;5035794;28;45282;-70
2022/11/13 03:11:57;;;;;;;;;9.25;7.75;;;;;21.37;44.80;102173.31;5035981;28;45505;-70
2022/11/13 03:14:22;;;;;;;;;8.25;6.00;;;;;;;;5035967;28;46372;-70
2022/11/13 03:16:47;;;;;;;;;8.00;7.00;;;;;21.43;44.55;102174.56;5042080;28;45352;-71
2022/11/13 03:19:13;;;;;;;;;7.33;7.33;;;;;21.37;45.14;102157.41;5036093;28;45414;-70
2022/11/13 03:21:38;;;;;;;;;11.33;10.00;;;;;21.38;44.92;102153.81;5035775;28;45573;-70
2022/11/13 03:24:04;;;;;;;;;4.50;4.00;;;;;21.38;45.15;102148.50;5035605;28;46290;-70
2022/11/13 03:26:29;;;;;;;;;9.00;8.00;;;;;21.38;45.06;102147.66;5035752;28;45235;-70
2022/11/13 03:28:55;;;;;;;;;9.75;8.00;;;;;21.40;44.74;102143.91;5035664;28;45732;-70
2022/11/13 03:31:21;;;;;;;;;7.33;5.00;;;;;21.39;45.23;102144.06;5035850;28;45315;-70
2022/11/13 03:33:46;;;;;;;;;8.00;7.00;;;;;21.38;44.91;102142.38;5035382;28;47275;-70
2022/11/13 03:36:12;;;;;;;;;7.33;7.33;;;;;21.42;44.71;102145.59;5035032;28;45518;-70
2022/11/13 03:38:37;;;;;;;;;6.00;6.00;;;;;21.40;44.82;102138.59;5035277;28;45560;-70
2022/11/13 03:41:03;;;;;;;;;8.00;7.25;;;;;21.42;45.36;102138.44;5035581;28;45370;-70
2022/11/13 03:43:29;;;;;;;;;9.00;9.00;;;;;21.40;44.85;102127.19;5035426;28;46300;-70
2022/11/13 03:45:54;;;;;;;;;9.00;7.50;;;;;21.34;45.00;102114.53;5035486;28;45353;-70
2022/11/13 03:48:20;;;;;;;;;7.33;6.67;;;;;21.40;44.92;102121.88;5035668;28;45354;-70
2022/11/13 03:50:48;;;;;;;;;8.25;8.25;;;;;21.38;45.28;102122.03;5035335;28;46022;-70
2022/11/13 03:53:14;;;;;;;;;8.00;8.00;;;;;21.39;45.14;102125.53;5034891;28;46090;-70
2022/11/13 03:55:40;;;;;;;;;8.00;7.67;;;;;21.39;44.84;102123.69;5035425;28;45425;-70
2022/11/13 03:58:06;;;;;;;;;9.00;8.00;;;;;21.39;44.90;102122.88;5035028;28;45390;-70
2022/11/13 04:00:32;;;;;;;;;8.25;8.00;;;;;21.39;45.13;102117.59;5034771;28;45386;-71
2022/11/13 04:02:57;;;;;;;;;8.25;8.25;;;;;21.35;44.67;102113.53;5035421;28;46154;-70
2022/11/13 04:05:23;;;;;;;;;9.00;8.25;;;;;21.38;45.20;102115.91;5023276;28;48264;-70
2022/11/13 04:07:48;;;;;;;;;5.75;5.50;;;;;21.35;44.85;102111.72;5032858;28;45354;-70
2022/11/13 04:10:14;;;;;;;;;9.50;8.50;;;;;21.39;45.13;102112.28;5035308;28;45365;-70
2022/11/13 04:12:39;;;;;;;;;7.67;7.67;;;;;21.38;44.78;102111.44;5034898;28;45533;-70
2022/11/13 04:15:06;;;;;;;;;8.00;8.00;;;;;21.38;44.86;102113.25;5035242;28;45358;-71
2022/11/13 04:17:32;;;;;;;;;7.75;7.50;;;;;21.40;44.81;102109.47;5035290;28;45454;-70
2022/11/13 04:19:57;;;;;;;;;9.50;9.25;;;;;21.39;45.09;102107.81;5034621;28;45496;-70
2022/11/13 04:22:22;;;;;;;;;8.25;7.75;;;;;21.37;44.52;102101.81;5034763;28;46060;-71
2022/11/13 04:24:48;;;;;;;;;8.00;8.00;;;;;21.42;45.03;102097.94;5034855;28;45366;-71
2022/11/13 04:27:13;;;;;;;;;7.00;7.00;;;;;21.43;44.67;102097.75;5034949;28;45224;-70
2022/11/13 04:29:38;;;;;;;;;9.75;7.00;;;;;21.40;44.88;102090.09;5034845;28;45243;-70
2022/11/13 04:32:04;;;;;;;;;8.75;6.00;;;;;21.42;44.67;102097.94;5034736;28;45201;-70
2022/11/13 04:34:29;;;;;;;;;6.50;5.75;;;;;21.43;44.52;102095.13;5034891;28;45370;-70
2022/11/13 04:36:55;;;;;;;;;10.75;8.00;;;;;21.44;44.57;102090.66;5034056;28;51829;-70
2022/11/13 04:39:20;;;;;;;;;9.25;6.75;;;;;21.29;44.43;102073.44;5034996;28;45174;-70
2022/11/13 04:44:29;;;;;;;;;7.25;7.00;;;;;21.40;44.50;102082.16;5034788;28;45232;-70
2022/11/13 04:46:54;;;;;;;;;8.00;8.00;;;;;21.39;44.80;102077.88;5035403;28;45342;-70
2022/11/13 04:49:20;;;;;;;;;10.00;8.25;;;;;21.32;44.72;102061.72;5038193;28;45219;-70
2022/11/13 04:51:45;;;;;;;;;10.00;8.75;;;;;21.39;44.72;102070.72;5037593;28;45287;-70
2022/11/13 04:54:10;;;;;;;;;9.00;8.00;;;;;21.37;44.94;102067.41;5037748;28;45290;-70
2022/11/13 04:56:36;;;;;;;;;9.25;7.00;;;;;21.38;44.39;102071.72;5037821;28;45355;-70
2022/11/13 04:59:01;;;;;;;;;10.50;7.75;;;;;21.38;44.74;102063.78;5038280;28;45420;-70
2022/11/13 05:01:26;;;;;;;;;8.75;8.75;;;;;21.31;44.35;102046.00;5040027;28;45366;-70
2022/11/13 05:03:52;;;;;;;;;7.25;7.25;;;;;21.37;44.53;102055.97;5037839;28;49288;-70
2022/11/13 05:06:17;;;;;;;;;7.25;7.25;;;;;21.37;44.60;102056.81;5037830;28;45378;-70
2022/11/13 05:08:42;;;;;;;;;8.75;6.50;;;;;21.35;44.95;102045.53;5020327;28;45626;-70
2022/11/13 05:11:08;;;;;;;;;6.75;6.75;;;;;21.33;44.66;102044.03;5037289;28;52998;-70
2022/11/13 05:13:34;;;;;;;;;6.00;6.00;;;;;21.36;44.71;102054.31;5038023;28;45351;-70
2022/11/13 05:16:08;;;;;;;;;7.75;7.75;;;;;21.31;44.59;102049.47;5037688;28;45381;-70
2022/11/13 05:18:37;;;;;;;;;8.75;8.75;;;;;21.36;44.78;102051.69;5037615;28;45567;-70
2022/11/13 05:21:07;;;;;;;;;7.00;7.00;;;;;21.36;44.66;102054.31;5037151;28;47397;-70
2022/11/13 05:23:33;;;;;;;;;8.00;8.00;;;;;21.35;44.83;102055.28;5037579;28;45798;-71
2022/11/13 05:26:07;;;;;;;;;7.00;7.00;;;;;21.36;44.29;102055.16;5037934;28;45520;-70
2022/11/13 05:28:33;;;;;;;;;7.00;6.00;;;;;21.35;44.99;102061.44;5037687;28;45435;-71
2022/11/13 05:31:04;;;;;;;;;7.00;6.00;;;;;21.36;44.96;102051.69;5037632;28;45431;-71
2022/11/13 05:33:29;;;;;;;;;7.00;7.00;;;;;21.36;44.71;102049.03;5036849;28;45361;-70
2022/11/13 05:35:54;;;;;;;;;8.00;7.00;;;;;21.36;44.54;102056.97;5037430;28;45350;-70
2022/11/13 05:38:20;;;;;;;;;8.75;7.75;;;;;21.32;44.54;102037.06;5037542;28;45309;-70
2022/11/13 05:40:45;;;;;;;;;9.50;8.50;;;;;21.34;44.72;102045.69;5037497;28;46980;-70
2022/11/13 05:43:10;;;;;;;;;7.00;7.00;;;;;21.34;44.58;102043.06;5036966;28;45382;-71
2022/11/13 05:45:35;;;;;;;;;8.75;5.50;;;;;21.35;44.42;102036.75;5037168;28;45330;-71
2022/11/13 05:48:01;;;;;;;;;6.25;6.25;;;;;21.32;44.72;102029.94;5037348;28;45314;-70
2022/11/13 05:50:26;;;;;;;;;8.00;6.75;;;;;21.34;44.86;102024.53;5036483;28;46136;-70
2022/11/13 05:52:52;;;;;;;;;9.25;8.00;;;;;21.36;44.66;102027.84;5041354;28;45396;-70
2022/11/13 05:55:17;;;;;;;;;5.67;5.67;;;;;21.26;44.77;102006.72;5037263;28;45237;-71
2022/11/13 05:57:42;;;;;;;;;9.50;7.25;;;;;21.36;44.86;102025.22;5036783;28;45411;-70
2022/11/13 06:00:08;;;;;;;;;10.00;8.00;;;;;21.34;44.79;102022.69;5019173;28;48195;-71
2022/11/13 06:02:34;;;;;;;;;3.33;3.33;;;;;21.34;44.58;102025.34;5036961;28;45485;-70
2022/11/13 06:04:59;;;;;;;;;7.00;5.33;;;;;21.36;44.44;102023.41;5034941;28;45373;-70
2022/11/13 06:07:24;;;;;;;;;9.33;6.00;;;;;21.36;44.45;102023.41;5037119;28;45489;-71
2022/11/13 06:09:50;;;;;;;;;7.33;7.33;;;;;21.37;44.53;102021.56;5045094;28;46123;-70
2022/11/13 06:12:15;;;;;;;;;6.00;6.00;;;;;21.32;44.78;102008.78;5036859;28;45449;-70
2022/11/13 06:14:40;;;;;;;;;7.00;7.00;;;;;21.37;44.72;102019.75;5037126;28;45457;-70
2022/11/13 06:17:06;;;;;;;;;7.00;7.00;;;;;21.38;44.53;102018.78;5036434;28;45362;-70
2022/11/13 06:19:31;;;;;;;;;6.00;5.25;;;;;21.31;44.35;101999.19;5035172;28;46396;-70
2022/11/13 06:21:56;;;;;;;;;5.25;5.25;;;;;21.37;44.50;102013.63;5036727;28;46145;-70
2022/11/13 06:24:22;;;;;;;;;3.50;3.00;;;;;21.35;44.76;102011.13;5036972;28;45364;-70
2022/11/13 06:26:47;;;;;;;;;7.25;6.00;;;;;21.36;44.42;102015.47;5036903;28;45402;-70
2022/11/13 06:29:12;;;;;;;;;7.25;6.00;;;;;21.36;44.46;102015.47;5036413;28;45984;-70
2022/11/13 06:31:38;;;;;;;;;8.50;7.00;;;;;21.37;44.68;102016.25;5036445;28;45422;-69
2022/11/13 06:34:04;;;;;;;;;6.00;6.00;;;;;21.37;44.39;102010.97;5018449;28;45372;-70
2022/11/13 06:36:33;;;;;;;;;7.33;6.00;;;;;21.37;44.43;102008.31;5032549;28;45280;-70
2022/11/13 06:38:58;;;;;;;;;7.33;5.67;;;;;21.36;44.40;102017.25;5036398;28;47154;-70
2022/11/13 06:41:28;;;;;;;;;5.67;5.33;;;;;21.36;44.88;102010.16;5036228;28;45303;-70
2022/11/13 06:43:54;;;;;;;;;7.50;6.50;;;;;21.35;44.39;102008.47;5036802;28;45286;-70
2022/11/13 06:46:22;;;;;;;;;6.33;6.33;;;;;21.34;44.87;102001.50;5036152;28;45433;-70
2022/11/13 06:48:48;;;;;;;;;7.33;6.33;;;;;21.32;44.49;102011.41;5036991;28;46309;-70
2022/11/13 06:51:19;;;;;;;;;8.00;8.00;;;;;21.34;44.40;102004.16;5036348;28;45349;-70
2022/11/13 06:53:46;;;;;;;;;7.00;7.00;;;;;21.32;44.51;102002.63;5035865;28;45358;-70
2022/11/13 06:56:12;;;;;;;;;7.67;7.00;;;;;21.34;44.29;102004.16;5036303;28;45398;-70
2022/11/13 06:58:38;;;;;;;;;8.00;6.33;;;;;21.33;44.38;101999.84;5035932;28;47305;-70
2022/11/13 07:01:15;;;;;;;;;5.00;4.33;;;;;21.34;44.88;102004.16;5035997;28;45478;-70
2022/11/13 07:03:41;;;;;;;;;7.00;5.67;;;;;21.33;44.17;101999.03;5036396;28;45362;-70
2022/11/13 07:06:13;;;;;;;;;7.00;6.50;;;;;21.34;44.39;102012.09;5027828;28;45465;-70
2022/11/13 07:08:40;;;;;;;;;8.50;7.25;;;;;21.34;44.55;102009.44;5035905;28;47334;-70
2022/11/13 07:11:09;;;;;;;;;6.00;6.00;;;;;21.34;44.25;102008.63;5034613;28;45477;-70
2022/11/13 07:13:36;;;;;;;;;7.00;5.67;;;;;21.32;44.35;101995.53;5036030;28;45263;-70
2022/11/13 07:16:04;;;;;;;;;7.33;6.33;;;;;21.33;44.54;101994.56;5035692;28;45229;-71
2022/11/13 07:18:30;;;;;;;;;6.00;6.00;;;;;21.26;44.78;101989.00;5035952;28;46370;-71
2022/11/13 07:20:56;;;;;;;;;7.75;6.00;;;;;21.29;44.60;102004.59;5035722;28;45430;-71
2022/11/13 07:23:22;;;;;;;;;6.00;5.00;;;;;21.31;44.65;102003.63;5018075;28;45462;-71
2022/11/13 07:25:47;;;;;;;;;5.67;5.00;;;;;21.31;44.29;102004.47;5035912;28;45517;-72
2022/11/13 07:28:12;;;;;;;;;6.75;6.25;;;;;21.26;44.40;101996.13;5035368;28;46053;-72
2022/11/13 07:30:38;;;;;;;;;5.75;5.75;;;;;21.27;44.73;101998.63;5035414;28;45442;-71
2022/11/13 07:33:04;;;;;;;;;5.50;5.25;;;;;21.27;44.51;102003.09;5036023;28;45431;-72
2022/11/13 07:35:29;;;;;;;;;6.00;5.00;;;;;21.25;44.53;102000.59;5035695;28;45527;-72
2022/11/13 07:37:55;;;;;;;;;6.33;4.67;;;;;21.29;44.49;102001.97;5035560;28;46189;-72
2022/11/13 07:40:21;;;;;;;;;7.33;6.67;;;;;21.24;44.90;101993.63;5035785;28;45375;-71
2022/11/13 07:42:46;;;;;;;;;4.67;4.67;;;;;21.28;44.22;101989.72;5035796;28;45362;-71
2022/11/13 07:45:11;;;;;;;;;9.75;6.50;;;;;21.34;44.39;101998.06;5035012;28;49906;-72
2022/11/13 07:47:37;;;;;;;;;5.33;5.00;;;;;21.35;44.61;102005.84;5035258;28;46147;-72
2022/11/13 07:50:02;;;;;;;;;6.33;5.00;;;;;21.35;44.53;102003.19;5035354;28;45363;-72
2022/11/13 07:52:28;;;;;;;;;5.33;5.33;;;;;21.36;44.75;102001.38;5035678;28;45446;-72
2022/11/13 07:54:53;;;;;;;;;7.00;6.00;;;;;21.36;44.56;101993.44;5035182;28;45458;-72
2022/11/13 07:57:21;;;;;;;;;8.00;6.33;;;;;21.36;44.46;101996.94;5035397;28;46251;-72
2022/11/13 07:59:47;;;;;;;;;6.33;6.33;;;;;21.37;44.54;102000.38;5035201;28;45394;-71
2022/11/13 08:02:15;;;;;;;;;7.67;6.00;;;;;21.35;44.55;101997.88;5035035;28;45335;-72
2022/11/13 08:04:40;;;;;;;;;6.50;6.00;;;;;21.36;44.55;101996.94;5029124;28;45363;-72
2022/11/13 08:07:06;;;;;;;;;5.67;5.67;;;;;21.35;44.42;101999.69;5027369;28;46576;-71
2022/11/13 08:09:31;;;;;;;;;5.33;5.33;;;;;21.36;44.09;102001.38;5034915;28;45347;-71
2022/11/13 08:11:57;;;;;;;;;5.67;4.67;;;;;21.35;44.83;101994.41;5035610;28;45245;-71
2022/11/13 08:14:22;;;;;;;;;6.67;6.33;;;;;21.24;44.63;101967.16;5035145;28;45506;-71
2022/11/13 08:16:47;;;;;;;;;5.67;5.67;;;;;21.34;44.58;101990.91;5041205;28;49550;-72
2022/11/13 08:19:12;;;;;;;;;5.67;4.67;;;;;21.33;44.70;101976.03;5020122;28;50443;-71
2022/11/13 08:21:38;;;;;;;;;6.00;6.00;;;;;21.34;44.40;101982.16;5036369;28;45443;-71
2022/11/13 08:24:03;;;;;;;;;5.00;5.00;;;;;21.33;44.87;101977.84;5038897;28;45378;-72
2022/11/13 08:26:29;;;;;;;;;6.00;4.67;;;;;21.30;44.33;101976.31;5017117;28;47185;-71
2022/11/13 08:28:54;;;;;;;;;5.00;4.00;;;;;21.33;44.65;101983.97;5027903;28;45414;-72
2022/11/13 08:31:19;;;;;;;;;6.00;6.00;;;;;21.32;44.72;101979.66;5038771;28;45865;-72
2022/11/13 08:33:45;;;;;;;;;6.00;5.33;;;;;21.33;44.70;101976.03;5038431;28;45423;-72
2022/11/13 08:36:10;;;;;;;;;5.33;5.33;;;;;21.33;44.57;101972.53;5038080;28;46060;-72
2022/11/13 08:38:36;;;;;;;;;7.75;5.50;;;;;21.27;44.27;101963.38;5038402;28;45450;-71
2022/11/13 08:41:03;;;;;;;;;5.00;5.00;;;;;21.33;44.41;101961.97;5020590;28;45387;-71
2022/11/13 08:43:29;;;;;;;;;9.00;5.33;;;;;21.32;44.63;101966.41;5038132;28;45374;-71
2022/11/13 08:45:54;;;;;;;;;7.67;6.67;;;;;21.25;44.69;101950.31;5037966;28;46942;-72
2022/11/13 08:48:20;;;;;;;;;5.00;5.00;;;;;21.28;44.62;101943.88;5038407;28;45470;-71
2022/11/13 08:50:50;;;;;;;;;5.00;5.00;;;;;21.33;44.59;101949.56;5038522;28;45382;-70
2022/11/13 08:53:15;;;;;;;;;4.33;4.00;;;;;21.33;44.40;101946.06;5038159;28;45509;-70
2022/11/13 08:55:41;;;;;;;;;7.00;5.50;;;;;21.33;44.48;101948.72;5024450;28;45293;-72
2022/11/13 08:58:07;;;;;;;;;6.75;5.00;;;;;21.32;44.30;101944.41;5037417;28;45349;-72
2022/11/13 09:00:33;;;;;;;;;5.00;5.00;;;;;21.32;44.75;101955.81;5037906;28;45398;-72
2022/11/13 09:02:59;;;;;;;;;9.00;6.00;;;;;21.32;44.46;101939.09;5038364;28;45401;-72
2022/11/13 09:05:25;;;;;;;;;6.00;6.00;;;;;21.32;44.69;101941.75;5025851;28;46355;-71
2022/11/13 09:07:55;;;;;;;;;6.00;6.00;;;;;21.32;44.33;101939.09;5035893;28;45385;-72
2022/11/13 09:10:21;;;;;;;;;4.00;4.00;;;;;21.29;44.58;101934.94;5037974;28;45531;-72
2022/11/13 09:12:46;;;;;;;;;6.00;6.00;;;;;21.31;44.49;101933.00;5037201;28;45464;-72
2022/11/13 09:15:11;;;;;;;;;7.00;5.67;;;;;21.31;44.86;101934.81;5037907;28;47440;-72
2022/11/13 09:17:37;;;;;;;;;8.50;7.00;;;;;21.32;44.63;101933.81;5037853;28;45450;-71
2022/11/13 09:20:05;;;;;;;;;6.75;6.75;;;;;21.32;44.27;101942.59;5037825;28;45485;-71
2022/11/13 09:22:31;;;;;;;;;6.33;4.67;;;;;21.32;44.71;101939.09;5038087;28;45394;-72
2022/11/13 09:24:56;;;;;;;;;5.00;5.00;;;;;21.33;44.34;101940.78;5051007;28;46001;-72
2022/11/13 09:27:22;;;;;;;;;6.00;6.00;;;;;21.21;44.67;101919.78;5016246;28;47480;-72
2022/11/13 09:29:47;;;;;;;;;4.00;4.00;;;;;21.26;44.39;101925.47;5034407;28;45442;-72
2022/11/13 09:32:13;;;;;;;;;5.50;5.50;;;;;21.34;44.48;101932.69;5037636;28;45449;-71
2022/11/13 09:34:39;;;;;;;;;6.00;6.00;;;;;21.33;44.23;101933.69;5047858;28;46841;-71
2022/11/13 09:37:04;;;;;;;;;5.75;5.25;;;;;21.35;44.37;101936.16;5025934;28;45449;-72
2022/11/13 09:39:29;;;;;;;;;5.00;4.00;;;;;21.36;44.36;101932.56;5038031;28;45381;-71
2022/11/13 09:42:09;;;;;;;;;7.00;5.00;;;;;21.34;44.72;101923.94;5037189;28;45360;-72
2022/11/13 09:44:43;;;;;;;;;5.00;4.00;;;;;21.35;44.50;101929.06;5037272;28;45433;-72
2022/11/13 09:47:32;;;;;;;;;4.50;4.50;;;;;21.35;44.34;101925.56;5037328;28;45406;-71
2022/11/13 09:50:05;;;;;;;;;6.00;6.00;;;;;21.29;44.22;101919.06;5037101;28;45315;-72
2022/11/13 09:52:43;;;;;;;;;6.00;6.00;;;;;21.35;44.50;101933.50;5037285;28;45288;-72
2022/11/13 09:55:14;;;;;;;;;3.67;3.00;;;;;21.36;44.02;101921.97;5036658;28;45435;-72
2022/11/13 09:57:44;;;;;;;;;5.00;5.00;;;;;21.34;44.36;101923.94;5037083;28;45399;-72
2022/11/13 10:00:14;;;;;;;;;5.25;5.25;;;;;21.29;44.44;101914.59;5037448;28;45375;-72
2022/11/13 10:02:51;;;;;;;;;4.75;4.75;;;;;21.34;44.25;101916.78;5050015;28;45335;-72
2022/11/13 10:05:44;;;;;;;;;5.50;5.50;;;;;21.34;44.21;101924.75;5025801;28;46062;-72
2022/11/13 10:08:16;;;;;;;;;6.00;6.00;;;;;21.30;44.12;101915.44;5024134;28;45465;-73
2022/11/13 10:10:46;;;;;;;;;8.25;5.75;;;;;21.33;44.63;101917.78;5037053;28;45402;-72
2022/11/13 10:13:16;;;;;;;;;6.00;6.00;;;;;21.05;44.25;101872.84;5037155;28;45375;-70
2022/11/13 10:15:49;;;;;;;;;5.75;5.75;;;;;21.29;44.66;101916.41;5037132;28;45375;-72
2022/11/13 10:18:33;;;;;;;;;7.75;4.50;;;;;21.31;44.23;101919.75;5036682;28;45470;-72
2022/11/13 10:21:26;;;;;;;;;4.33;4.33;;;;;21.31;44.60;101918.94;5036804;28;45504;-72
2022/11/13 10:23:55;;;;;;;;;5.00;5.00;;;;;21.31;44.68;101908.34;5036432;28;45322;-72
2022/11/13 10:26:23;;;;;;;;;5.00;5.00;;;;;21.31;44.38;101911.81;5036533;28;45924;-71
2022/11/13 10:28:59;;;;;;;;;7.25;6.00;;;;;21.32;44.43;101907.34;5036816;28;45276;-72
2022/11/13 10:31:25;;;;;;;;;6.67;4.33;;;;;21.32;44.26;101904.69;5036819;28;45323;-72
2022/11/13 10:33:53;;;;;;;;;6.25;5.25;;;;;21.25;44.46;101899.16;5036767;28;45402;-71
2022/11/13 10:36:53;;;;;;;;;5.33;4.00;;;;;21.32;44.92;101908.19;5036662;28;46472;-72
2022/11/13 10:39:18;;;;;;;;;7.00;7.00;;;;;21.31;44.36;101897.75;5036273;28;45228;-71
2022/11/13 10:41:45;;;;;;;;;4.00;4.00;;;;;21.23;44.17;101882.63;5036483;28;45355;-69
2022/11/13 10:44:24;;;;;;;;;7.00;7.00;;;;;21.23;44.56;101885.25;5036866;28;45394;-72
2022/11/13 10:46:49;;;;;;;;;6.33;6.00;;;;;21.30;44.32;101883.69;5035988;28;46359;-71
2022/11/13 10:49:20;;;;;;;;;5.00;5.00;;;;;21.31;44.21;101884.50;5036093;28;45489;-72
2022/11/13 10:51:55;;;;;;;;;5.33;4.67;;;;;21.30;44.27;101886.31;5036444;28;45463;-72
2022/11/13 10:54:26;;;;;;;;;5.00;5.00;;;;;21.29;44.34;101882.00;5036044;28;45484;-72
2022/11/13 10:56:57;;;;;;;;;5.67;5.67;;;;;21.31;44.72;101884.50;5041054;28;46165;-71
2022/11/13 10:59:22;;;;;;;;;5.25;5.25;;;;;21.27;44.21;101874.22;5036167;28;45274;-72
2022/11/13 11:01:48;;;;;;;;;3.50;3.50;;;;;21.29;44.65;101882.00;5036183;28;45381;-71
2022/11/13 11:04:23;;;;;;;;;5.75;5.25;;;;;21.30;44.37;101875.72;5033838;28;45358;-71
2022/11/13 11:06:50;;;;;;;;;6.00;6.00;;;;;21.31;44.19;101872.13;5025362;28;46504;-72
2022/11/13 11:09:19;;;;;;;;;6.00;6.00;;;;;21.23;44.40;101851.69;5049062;28;45515;-72
2022/11/13 11:12:15;;;;;;;;;5.67;5.00;;;;;21.31;44.47;101856.25;5036221;28;45402;-72
2022/11/13 11:14:56;;;;;;;;;4.00;4.00;;;;;21.33;44.51;101853.44;5035875;28;45326;-71
2022/11/13 11:17:32;;;;;;;;;7.00;5.25;;;;;21.21;44.36;101818.41;5035779;28;46012;-72
2022/11/13 11:20:06;;;;;;;;;5.00;5.00;;;;;21.22;44.40;101818.25;5035611;28;45378;-72
2022/11/13 11:22:36;;;;;;;;;5.00;3.00;;;;;21.34;44.75;101841.88;5035747;28;45366;-72
2022/11/13 11:25:37;;;;;;;;;6.00;5.00;;;;;21.33;44.41;101832.25;5036186;28;45216;-72
2022/11/13 11:28:27;;;;;;;;;5.25;5.00;;;;;21.29;44.43;101827.25;5035704;28;46489;-72
2022/11/13 11:31:35;;;;;;;;;5.75;5.50;;;;;21.35;44.65;101830.28;5035773;28;45339;-72
2022/11/13 11:34:24;;;;;;;;;4.00;4.00;;;;;21.36;44.54;101822.19;4978399;28;45470;-71